| Date | Time | Temp. (oF) | Dew Point (oF) | Rel. Hum. (%) | Press. (in.) | Wind Dir. | Wind Speed (mph) | Hourly Rainfall (in.) |
|
|---|---|---|---|---|---|---|---|---|---|
| 1 | 01/22 | 00:00 | 14 | 9 | 81 | 30.45 | SSE | 4 | 0.00 |
| 2 | 01/21 | 23:00 | 16 | 11 | 81 | 30.44 | SSW | 4 | 0.00 |
| 3 | 01/21 | 22:00 | 18 | 11 | 76 | 30.42 | WSW | 1 | 0.00 |
| 4 | 01/21 | 21:00 | 20 | 13 | 75 | 30.40 | WSW | 1 | 0.00 |
| 5 | 01/21 | 20:00 | 23 | 14 | 70 | 30.37 | S | 1 | 0.00 |
| 6 | 01/21 | 19:00 | 24 | 14 | 67 | 30.35 | SW | 2 | 0.00 |
| 7 | 01/21 | 18:00 | 27 | 16 | 63 | 30.31 | SW | 2 | 0.00 |
| 8 | 01/21 | 17:00 | 28 | 17 | 64 | 30.26 | SSE | 5 | 0.00 |
| 9 | 01/21 | 16:00 | 28 | 17 | 63 | 30.23 | W | 12 | 0.00 |
| 10 | 01/21 | 15:00 | 27 | 16 | 64 | 30.22 | WNW | 9 | 0.00 |
| 11 | 01/21 | 14:00 | 27 | 16 | 64 | 30.23 | WNW | 7 | 0.00 |
| 12 | 01/21 | 13:00 | 25 | 14 | 65 | 30.24 | W | 11 | 0.00 |
| 13 | 01/21 | 12:00 | 25 | 15 | 67 | 30.25 | S | 6 | 0.00 |
| 14 | 01/21 | 11:00 | 23 | 14 | 68 | 30.24 | NW | 8 | 0.00 |
| 15 | 01/21 | 10:00 | 22 | 13 | 70 | 30.22 | WNW | 12 | 0.01 |
| 16 | 01/21 | 09:00 | 21 | 15 | 78 | 30.19 | WNW | 7 | 0.00 |
| 17 | 01/21 | 08:00 | 19 | 15 | 87 | 30.16 | NW | 5 | 0.00 |
| 18 | 01/21 | 07:00 | 20 | 18 | 92 | 30.12 | NW | 10 | 0.00 |
| 19 | 01/21 | 06:00 | 20 | 19 | 98 | 30.07 | NW | 11 | 0.00 |
| 20 | 01/21 | 05:00 | 21 | 20 | 96 | 30.00 | NW | 9 | 0.00 |
| 21 | 01/21 | 04:00 | 21 | 21 | 100 | 29.94 | WNW | 11 | 0.00 |
| 22 | 01/21 | 03:00 | 23 | 23 | 100 | 29.90 | NNW | 11 | 0.01 |
| 23 | 01/21 | 02:00 | 24 | 23 | 100 | 29.87 | NNW | 6 | 0.00 |
| 24 | 01/21 | 01:00 | 25 | 24 | 100 | 29.87 | NW | 8 | 0.01 |